sensor_id;sensor_type;location;lat;lon;timestamp;temperature;humidity
3626;DHT22;1827;50.534;8.316;2023-12-14T00:02:00;3.50;1.00
3626;DHT22;1827;50.534;8.316;2023-12-14T00:04:25;3.60;1.00
3626;DHT22;1827;50.534;8.316;2023-12-14T00:06:51;3.60;1.00
3626;DHT22;1827;50.534;8.316;2023-12-14T00:09:16;3.60;1.00
3626;DHT22;1827;50.534;8.316;2023-12-14T00:11:42;3.60;1.00
3626;DHT22;1827;50.534;8.316;2023-12-14T00:14:08;3.60;1.00
3626;DHT22;1827;50.534;8.316;2023-12-14T00:16:33;3.70;1.00
3626;DHT22;1827;50.534;8.316;2023-12-14T00:18:59;3.60;1.00
3626;DHT22;1827;50.534;8.316;2023-12-14T00:21:25;3.70;1.00
3626;DHT22;1827;50.534;8.316;2023-12-14T00:23:50;3.80;51.00
3626;DHT22;1827;50.534;8.316;2023-12-14T00:26:16;3.90;99.90
3626;DHT22;1827;50.534;8.316;2023-12-14T00:28:42;3.80;43.60
3626;DHT22;1827;50.534;8.316;2023-12-14T00:31:08;3.90;99.90
3626;DHT22;1827;50.534;8.316;2023-12-14T00:33:34;3.80;51.50
3626;DHT22;1827;50.534;8.316;2023-12-14T00:35:59;3.80;1.00
3626;DHT22;1827;50.534;8.316;2023-12-14T00:38:25;3.80;3.00
3626;DHT22;1827;50.534;8.316;2023-12-14T00:40:50;3.80;99.90
3626;DHT22;1827;50.534;8.316;2023-12-14T00:43:16;3.80;99.90
3626;DHT22;1827;50.534;8.316;2023-12-14T00:45:41;3.80;99.90
3626;DHT22;1827;50.534;8.316;2023-12-14T00:48:07;3.80;99.90
3626;DHT22;1827;50.534;8.316;2023-12-14T00:50:32;3.70;99.90
3626;DHT22;1827;50.534;8.316;2023-12-14T00:52:58;3.70;99.80
3626;DHT22;1827;50.534;8.316;2023-12-14T00:55:24;3.70;99.90
3626;DHT22;1827;50.534;8.316;2023-12-14T00:57:49;3.80;99.90
3626;DHT22;1827;50.534;8.316;2023-12-14T01:00:15;3.80;99.90
3626;DHT22;1827;50.534;8.316;2023-12-14T01:02:41;3.70;99.90
3626;DHT22;1827;50.534;8.316;2023-12-14T01:05:07;3.80;99.90
3626;DHT22;1827;50.534;8.316;2023-12-14T01:07:32;3.80;99.90
3626;DHT22;1827;50.534;8.316;2023-12-14T01:09:58;3.90;99.90
3626;DHT22;1827;50.534;8.316;2023-12-14T01:12:23;3.90;99.90
3626;DHT22;1827;50.534;8.316;2023-12-14T01:14:49;3.90;99.90
3626;DHT22;1827;50.534;8.316;2023-12-14T01:17:15;3.90;99.90
3626;DHT22;1827;50.534;8.316;2023-12-14T01:19:41;3.80;99.90
3626;DHT22;1827;50.534;8.316;2023-12-14T01:22:06;3.80;99.90
3626;DHT22;1827;50.534;8.316;2023-12-14T01:24:32;3.80;99.90
3626;DHT22;1827;50.534;8.316;2023-12-14T01:26:58;3.80;99.90
3626;DHT22;1827;50.534;8.316;2023-12-14T01:29:23;3.80;99.90
3626;DHT22;1827;50.534;8.316;2023-12-14T01:31:49;3.80;99.90
3626;DHT22;1827;50.534;8.316;2023-12-14T01:34:14;3.80;99.90
3626;DHT22;1827;50.534;8.316;2023-12-14T01:36:41;3.80;99.90
3626;DHT22;1827;50.534;8.316;2023-12-14T01:39:06;3.80;99.90
3626;DHT22;1827;50.534;8.316;2023-12-14T01:41:32;3.70;1.00
3626;DHT22;1827;50.534;8.316;2023-12-14T01:43:57;3.70;1.00
3626;DHT22;1827;50.534;8.316;2023-12-14T01:46:23;3.60;1.00
3626;DHT22;1827;50.534;8.316;2023-12-14T01:48:49;3.80;99.90
3626;DHT22;1827;50.534;8.316;2023-12-14T01:51:15;3.80;99.90
3626;DHT22;1827;50.534;8.316;2023-12-14T01:53:41;3.70;96.20
3626;DHT22;1827;50.534;8.316;2023-12-14T01:56:06;3.70;67.10
3626;DHT22;1827;50.534;8.316;2023-12-14T01:58:32;3.60;60.10
3626;DHT22;1827;50.534;8.316;2023-12-14T02:03:23;3.70;99.90
3626;DHT22;1827;50.534;8.316;2023-12-14T02:05:49;3.80;99.90
3626;DHT22;1827;50.534;8.316;2023-12-14T02:08:14;3.80;99.90
3626;DHT22;1827;50.534;8.316;2023-12-14T02:10:40;3.70;99.90
3626;DHT22;1827;50.534;8.316;2023-12-14T02:13:05;3.70;99.90
3626;DHT22;1827;50.534;8.316;2023-12-14T02:15:32;3.80;99.90
3626;DHT22;1827;50.534;8.316;2023-12-14T02:17:58;3.70;99.90
3626;DHT22;1827;50.534;8.316;2023-12-14T02:20:23;3.80;99.90
3626;DHT22;1827;50.534;8.316;2023-12-14T02:25:16;3.70;7.80
3626;DHT22;1827;50.534;8.316;2023-12-14T02:27:41;3.60;1.00
3626;DHT22;1827;50.534;8.316;2023-12-14T02:30:07;3.70;99.90
3626;DHT22;1827;50.534;8.316;2023-12-14T02:32:32;3.70;99.90
3626;DHT22;1827;50.534;8.316;2023-12-14T02:34:58;3.60;95.60
3626;DHT22;1827;50.534;8.316;2023-12-14T02:37:24;3.60;99.90
3626;DHT22;1827;50.534;8.316;2023-12-14T02:39:49;3.60;99.90
3626;DHT22;1827;50.534;8.316;2023-12-14T02:42:15;3.60;99.90
3626;DHT22;1827;50.534;8.316;2023-12-14T02:44:40;3.80;99.90
3626;DHT22;1827;50.534;8.316;2023-12-14T02:47:08;3.80;99.90
3626;DHT22;1827;50.534;8.316;2023-12-14T02:49:33;3.90;99.90
3626;DHT22;1827;50.534;8.316;2023-12-14T02:52:00;3.80;99.90
3626;DHT22;1827;50.534;8.316;2023-12-14T02:54:25;3.80;99.90
3626;DHT22;1827;50.534;8.316;2023-12-14T02:56:51;3.80;99.90
3626;DHT22;1827;50.534;8.316;2023-12-14T02:59:17;3.80;99.90
3626;DHT22;1827;50.534;8.316;2023-12-14T03:01:42;3.70;99.90
3626;DHT22;1827;50.534;8.316;2023-12-14T03:04:08;3.80;99.90
3626;DHT22;1827;50.534;8.316;2023-12-14T03:06:33;3.80;99.90
3626;DHT22;1827;50.534;8.316;2023-12-14T03:08:59;3.80;99.90
3626;DHT22;1827;50.534;8.316;2023-12-14T03:11:25;3.70;99.90
3626;DHT22;1827;50.534;8.316;2023-12-14T03:13:51;3.80;99.90
3626;DHT22;1827;50.534;8.316;2023-12-14T03:16:17;3.90;99.90
3626;DHT22;1827;50.534;8.316;2023-12-14T03:18:43;3.80;99.90
3626;DHT22;1827;50.534;8.316;2023-12-14T03:21:09;3.90;99.90
3626;DHT22;1827;50.534;8.316;2023-12-14T03:23:34;3.90;99.90
3626;DHT22;1827;50.534;8.316;2023-12-14T03:26:00;3.90;99.90
3626;DHT22;1827;50.534;8.316;2023-12-14T03:28:26;3.90;99.90
3626;DHT22;1827;50.534;8.316;2023-12-14T03:30:52;3.90;99.90
3626;DHT22;1827;50.534;8.316;2023-12-14T03:33:18;3.90;99.90
3626;DHT22;1827;50.534;8.316;2023-12-14T03:35:43;3.90;99.90
3626;DHT22;1827;50.534;8.316;2023-12-14T03:38:09;3.80;99.90
3626;DHT22;1827;50.534;8.316;2023-12-14T03:40:35;3.80;99.90
3626;DHT22;1827;50.534;8.316;2023-12-14T03:43:01;3.80;99.90
3626;DHT22;1827;50.534;8.316;2023-12-14T03:45:28;3.80;99.90
3626;DHT22;1827;50.534;8.316;2023-12-14T03:47:54;3.80;99.90
3626;DHT22;1827;50.534;8.316;2023-12-14T03:50:20;3.80;99.90
3626;DHT22;1827;50.534;8.316;2023-12-14T03:52:45;3.70;99.90
3626;DHT22;1827;50.534;8.316;2023-12-14T03:55:12;3.70;99.90
3626;DHT22;1827;50.534;8.316;2023-12-14T03:57:37;3.70;99.90
3626;DHT22;1827;50.534;8.316;2023-12-14T04:00:03;3.70;99.90
3626;DHT22;1827;50.534;8.316;2023-12-14T04:02:30;3.70;99.90
3626;DHT22;1827;50.534;8.316;2023-12-14T04:04:56;3.70;99.90
3626;DHT22;1827;50.534;8.316;2023-12-14T04:07:21;3.70;1.00
3626;DHT22;1827;50.534;8.316;2023-12-14T04:09:47;3.90;1.00
3626;DHT22;1827;50.534;8.316;2023-12-14T04:12:14;4.00;1.00
3626;DHT22;1827;50.534;8.316;2023-12-14T04:14:39;3.90;1.00
3626;DHT22;1827;50.534;8.316;2023-12-14T04:17:05;4.00;1.00
3626;DHT22;1827;50.534;8.316;2023-12-14T04:19:30;4.00;99.90
3626;DHT22;1827;50.534;8.316;2023-12-14T04:21:56;4.00;99.90
3626;DHT22;1827;50.534;8.316;2023-12-14T04:24:21;3.90;99.90
3626;DHT22;1827;50.534;8.316;2023-12-14T04:26:47;3.90;99.90
3626;DHT22;1827;50.534;8.316;2023-12-14T04:29:13;3.80;99.80
3626;DHT22;1827;50.534;8.316;2023-12-14T04:31:38;3.90;99.90
3626;DHT22;1827;50.534;8.316;2023-12-14T04:34:04;3.90;99.90
3626;DHT22;1827;50.534;8.316;2023-12-14T04:36:29;3.90;99.90
3626;DHT22;1827;50.534;8.316;2023-12-14T04:38:55;3.80;99.90
3626;DHT22;1827;50.534;8.316;2023-12-14T04:41:20;3.80;99.90
3626;DHT22;1827;50.534;8.316;2023-12-14T04:43:46;3.80;99.90
3626;DHT22;1827;50.534;8.316;2023-12-14T04:46:11;3.90;99.90
3626;DHT22;1827;50.534;8.316;2023-12-14T04:48:37;4.00;99.90
3626;DHT22;1827;50.534;8.316;2023-12-14T04:51:03;4.00;99.90
3626;DHT22;1827;50.534;8.316;2023-12-14T04:53:28;4.00;99.90
3626;DHT22;1827;50.534;8.316;2023-12-14T04:55:54;4.00;99.90
3626;DHT22;1827;50.534;8.316;2023-12-14T04:58:19;4.00;1.60
3626;DHT22;1827;50.534;8.316;2023-12-14T05:00:45;3.90;1.00
3626;DHT22;1827;50.534;8.316;2023-12-14T05:03:11;3.90;1.00
3626;DHT22;1827;50.534;8.316;2023-12-14T05:05:36;3.90;1.00
3626;DHT22;1827;50.534;8.316;2023-12-14T05:08:02;3.90;1.00
3626;DHT22;1827;50.534;8.316;2023-12-14T05:10:27;3.90;1.00
3626;DHT22;1827;50.534;8.316;2023-12-14T05:12:53;3.80;1.00
3626;DHT22;1827;50.534;8.316;2023-12-14T05:15:18;3.80;1.00
3626;DHT22;1827;50.534;8.316;2023-12-14T05:17:45;3.90;1.00
3626;DHT22;1827;50.534;8.316;2023-12-14T05:20:10;4.00;55.30
3626;DHT22;1827;50.534;8.316;2023-12-14T05:22:36;4.10;99.90
3626;DHT22;1827;50.534;8.316;2023-12-14T05:25:02;4.00;1.00
3626;DHT22;1827;50.534;8.316;2023-12-14T05:27:28;4.10;1.00
3626;DHT22;1827;50.534;8.316;2023-12-14T05:29:54;4.10;1.00
3626;DHT22;1827;50.534;8.316;2023-12-14T05:32:19;4.00;1.00
3626;DHT22;1827;50.534;8.316;2023-12-14T05:34:45;4.10;1.00
3626;DHT22;1827;50.534;8.316;2023-12-14T05:37:10;4.10;1.00
3626;DHT22;1827;50.534;8.316;2023-12-14T05:39:36;4.10;1.00
3626;DHT22;1827;50.534;8.316;2023-12-14T05:42:02;4.20;1.00
3626;DHT22;1827;50.534;8.316;2023-12-14T05:44:28;4.20;99.90
3626;DHT22;1827;50.534;8.316;2023-12-14T05:46:53;4.00;99.90
3626;DHT22;1827;50.534;8.316;2023-12-14T05:49:19;4.00;99.90
3626;DHT22;1827;50.534;8.316;2023-12-14T05:51:45;4.00;99.90
3626;DHT22;1827;50.534;8.316;2023-12-14T05:54:10;4.00;99.90
3626;DHT22;1827;50.534;8.316;2023-12-14T05:56:36;4.00;99.90
3626;DHT22;1827;50.534;8.316;2023-12-14T05:59:01;3.90;60.10
3626;DHT22;1827;50.534;8.316;2023-12-14T06:01:27;4.00;98.90
3626;DHT22;1827;50.534;8.316;2023-12-14T06:03:52;4.00;91.30
3626;DHT22;1827;50.534;8.316;2023-12-14T06:06:18;3.90;85.80
3626;DHT22;1827;50.534;8.316;2023-12-14T06:08:44;4.10;99.90
3626;DHT22;1827;50.534;8.316;2023-12-14T06:11:10;4.00;91.00
3626;DHT22;1827;50.534;8.316;2023-12-14T06:13:35;4.00;1.00
3626;DHT22;1827;50.534;8.316;2023-12-14T06:16:01;4.00;1.00
3626;DHT22;1827;50.534;8.316;2023-12-14T06:18:27;4.00;1.00
3626;DHT22;1827;50.534;8.316;2023-12-14T06:20:52;4.10;12.20
3626;DHT22;1827;50.534;8.316;2023-12-14T06:23:18;4.00;1.00
3626;DHT22;1827;50.534;8.316;2023-12-14T06:25:44;4.00;1.00
3626;DHT22;1827;50.534;8.316;2023-12-14T06:28:09;4.10;1.00
3626;DHT22;1827;50.534;8.316;2023-12-14T06:30:35;4.20;1.00
3626;DHT22;1827;50.534;8.316;2023-12-14T06:33:00;4.30;1.00
3626;DHT22;1827;50.534;8.316;2023-12-14T06:35:26;4.20;1.00
3626;DHT22;1827;50.534;8.316;2023-12-14T06:37:51;4.10;1.00
3626;DHT22;1827;50.534;8.316;2023-12-14T06:40:17;4.10;1.00
3626;DHT22;1827;50.534;8.316;2023-12-14T06:42:43;4.10;1.00
3626;DHT22;1827;50.534;8.316;2023-12-14T06:45:09;4.20;1.00
3626;DHT22;1827;50.534;8.316;2023-12-14T06:47:35;4.20;1.00
3626;DHT22;1827;50.534;8.316;2023-12-14T06:50:01;4.20;1.00
3626;DHT22;1827;50.534;8.316;2023-12-14T06:52:26;4.20;99.90
3626;DHT22;1827;50.534;8.316;2023-12-14T06:54:52;4.00;99.90
3626;DHT22;1827;50.534;8.316;2023-12-14T06:57:17;3.90;99.90
3626;DHT22;1827;50.534;8.316;2023-12-14T06:59:43;3.90;99.90
3626;DHT22;1827;50.534;8.316;2023-12-14T07:02:08;4.00;99.90
3626;DHT22;1827;50.534;8.316;2023-12-14T07:04:35;4.20;1.00
3626;DHT22;1827;50.534;8.316;2023-12-14T07:07:01;4.30;1.00
3626;DHT22;1827;50.534;8.316;2023-12-14T07:09:26;4.20;99.90
3626;DHT22;1827;50.534;8.316;2023-12-14T07:11:52;4.10;99.90
3626;DHT22;1827;50.534;8.316;2023-12-14T07:14:17;4.10;99.90
3626;DHT22;1827;50.534;8.316;2023-12-14T07:16:43;4.10;99.90
3626;DHT22;1827;50.534;8.316;2023-12-14T07:19:09;4.10;99.90
3626;DHT22;1827;50.534;8.316;2023-12-14T07:21:36;4.40;99.90
3626;DHT22;1827;50.534;8.316;2023-12-14T07:24:02;4.30;99.90
3626;DHT22;1827;50.534;8.316;2023-12-14T07:26:27;4.20;55.80
3626;DHT22;1827;50.534;8.316;2023-12-14T07:28:53;4.10;1.00
3626;DHT22;1827;50.534;8.316;2023-12-14T07:31:19;4.10;1.00
3626;DHT22;1827;50.534;8.316;2023-12-14T07:33:45;4.10;1.00
3626;DHT22;1827;50.534;8.316;2023-12-14T07:36:11;4.10;1.00
3626;DHT22;1827;50.534;8.316;2023-12-14T07:38:37;4.10;1.00
3626;DHT22;1827;50.534;8.316;2023-12-14T07:41:02;4.20;21.20
3626;DHT22;1827;50.534;8.316;2023-12-14T07:43:33;4.10;1.00
3626;DHT22;1827;50.534;8.316;2023-12-14T07:46:00;4.10;14.50
3626;DHT22;1827;50.534;8.316;2023-12-14T07:48:26;4.10;39.60
3626;DHT22;1827;50.534;8.316;2023-12-14T07:50:53;4.10;57.90
3626;DHT22;1827;50.534;8.316;2023-12-14T07:53:19;4.20;99.90
3626;DHT22;1827;50.534;8.316;2023-12-14T07:55:45;4.20;99.90
3626;DHT22;1827;50.534;8.316;2023-12-14T07:58:10;4.30;99.90
3626;DHT22;1827;50.534;8.316;2023-12-14T08:00:38;4.30;99.90
3626;DHT22;1827;50.534;8.316;2023-12-14T08:03:04;4.40;99.90
3626;DHT22;1827;50.534;8.316;2023-12-14T08:05:30;4.30;99.90
3626;DHT22;1827;50.534;8.316;2023-12-14T08:07:55;4.30;99.90
3626;DHT22;1827;50.534;8.316;2023-12-14T08:10:21;4.40;99.90
3626;DHT22;1827;50.534;8.316;2023-12-14T08:12:46;4.50;99.90
3626;DHT22;1827;50.534;8.316;2023-12-14T08:15:16;4.50;99.90
3626;DHT22;1827;50.534;8.316;2023-12-14T08:17:42;4.50;99.90
3626;DHT22;1827;50.534;8.316;2023-12-14T08:20:08;4.50;99.90
3626;DHT22;1827;50.534;8.316;2023-12-14T08:22:36;4.40;99.90
3626;DHT22;1827;50.534;8.316;2023-12-14T08:25:01;4.40;99.90
3626;DHT22;1827;50.534;8.316;2023-12-14T08:27:29;4.40;99.90
3626;DHT22;1827;50.534;8.316;2023-12-14T08:29:54;4.40;99.90
3626;DHT22;1827;50.534;8.316;2023-12-14T08:32:20;4.60;99.90
3626;DHT22;1827;50.534;8.316;2023-12-14T08:34:45;4.70;99.90
3626;DHT22;1827;50.534;8.316;2023-12-14T08:37:11;4.60;99.90
3626;DHT22;1827;50.534;8.316;2023-12-14T08:39:37;4.70;99.90
3626;DHT22;1827;50.534;8.316;2023-12-14T08:42:05;4.70;99.90
3626;DHT22;1827;50.534;8.316;2023-12-14T08:44:31;4.70;99.90
3626;DHT22;1827;50.534;8.316;2023-12-14T08:46:56;4.70;99.90
3626;DHT22;1827;50.534;8.316;2023-12-14T08:49:22;4.70;98.70
3626;DHT22;1827;50.534;8.316;2023-12-14T08:51:48;4.60;99.90
3626;DHT22;1827;50.534;8.316;2023-12-14T08:54:14;4.60;99.90
3626;DHT22;1827;50.534;8.316;2023-12-14T08:56:39;4.80;99.90
3626;DHT22;1827;50.534;8.316;2023-12-14T08:59:05;4.70;99.90
3626;DHT22;1827;50.534;8.316;2023-12-14T09:01:31;4.80;99.90
3626;DHT22;1827;50.534;8.316;2023-12-14T09:03:56;4.80;99.90
3626;DHT22;1827;50.534;8.316;2023-12-14T09:06:22;4.80;99.90
3626;DHT22;1827;50.534;8.316;2023-12-14T09:08:47;4.80;99.90
3626;DHT22;1827;50.534;8.316;2023-12-14T09:11:13;4.80;99.90
3626;DHT22;1827;50.534;8.316;2023-12-14T09:13:40;4.80;37.40
3626;DHT22;1827;50.534;8.316;2023-12-14T09:16:06;4.80;58.20
3626;DHT22;1827;50.534;8.316;2023-12-14T09:18:32;4.80;99.90
3626;DHT22;1827;50.534;8.316;2023-12-14T09:20:57;4.90;96.40
3626;DHT22;1827;50.534;8.316;2023-12-14T09:23:26;5.00;99.90
3626;DHT22;1827;50.534;8.316;2023-12-14T09:25:51;5.10;61.50
3626;DHT22;1827;50.534;8.316;2023-12-14T09:28:17;5.10;1.00
3626;DHT22;1827;50.534;8.316;2023-12-14T09:30:43;5.10;1.00
3626;DHT22;1827;50.534;8.316;2023-12-14T09:33:10;5.10;1.00
3626;DHT22;1827;50.534;8.316;2023-12-14T09:35:35;5.00;1.00
3626;DHT22;1827;50.534;8.316;2023-12-14T09:38:05;5.00;1.00
3626;DHT22;1827;50.534;8.316;2023-12-14T09:40:31;5.00;1.00
3626;DHT22;1827;50.534;8.316;2023-12-14T09:42:57;5.00;1.00
3626;DHT22;1827;50.534;8.316;2023-12-14T09:45:24;5.00;1.00
3626;DHT22;1827;50.534;8.316;2023-12-14T09:47:52;5.00;1.00
3626;DHT22;1827;50.534;8.316;2023-12-14T09:50:19;5.00;1.00
3626;DHT22;1827;50.534;8.316;2023-12-14T09:52:45;5.10;1.00
3626;DHT22;1827;50.534;8.316;2023-12-14T09:55:12;5.20;1.00
3626;DHT22;1827;50.534;8.316;2023-12-14T09:57:38;5.30;1.00
3626;DHT22;1827;50.534;8.316;2023-12-14T10:00:04;5.20;1.00
3626;DHT22;1827;50.534;8.316;2023-12-14T10:02:34;5.20;1.00
3626;DHT22;1827;50.534;8.316;2023-12-14T10:05:00;5.30;1.00
3626;DHT22;1827;50.534;8.316;2023-12-14T10:07:25;5.40;1.00
3626;DHT22;1827;50.534;8.316;2023-12-14T10:09:51;5.40;1.00
3626;DHT22;1827;50.534;8.316;2023-12-14T10:12:18;5.50;1.00
3626;DHT22;1827;50.534;8.316;2023-12-14T10:14:44;5.50;1.00
3626;DHT22;1827;50.534;8.316;2023-12-14T10:17:20;5.60;1.00
3626;DHT22;1827;50.534;8.316;2023-12-14T10:19:46;5.80;58.10
3626;DHT22;1827;50.534;8.316;2023-12-14T10:22:16;5.90;1.00
3626;DHT22;1827;50.534;8.316;2023-12-14T10:24:43;6.00;1.00
3626;DHT22;1827;50.534;8.316;2023-12-14T10:27:10;6.10;1.00
3626;DHT22;1827;50.534;8.316;2023-12-14T10:29:36;6.20;99.90
3626;DHT22;1827;50.534;8.316;2023-12-14T10:32:05;6.30;99.90
3626;DHT22;1827;50.534;8.316;2023-12-14T10:34:35;6.00;1.00
3626;DHT22;1827;50.534;8.316;2023-12-14T10:37:01;6.00;1.00
3626;DHT22;1827;50.534;8.316;2023-12-14T10:39:29;5.90;1.00
3626;DHT22;1827;50.534;8.316;2023-12-14T10:41:56;5.80;99.90
3626;DHT22;1827;50.534;8.316;2023-12-14T10:44:23;5.80;99.90
3626;DHT22;1827;50.534;8.316;2023-12-14T10:46:50;5.90;99.90
3626;DHT22;1827;50.534;8.316;2023-12-14T10:49:18;6.00;99.90
3626;DHT22;1827;50.534;8.316;2023-12-14T10:51:47;6.10;99.90
3626;DHT22;1827;50.534;8.316;2023-12-14T10:54:12;6.30;1.00
3626;DHT22;1827;50.534;8.316;2023-12-14T10:56:39;6.40;1.00
3626;DHT22;1827;50.534;8.316;2023-12-14T10:59:05;6.50;99.90
3626;DHT22;1827;50.534;8.316;2023-12-14T11:01:32;6.60;99.90
3626;DHT22;1827;50.534;8.316;2023-12-14T11:03:58;6.50;16.70
3626;DHT22;1827;50.534;8.316;2023-12-14T11:08:53;6.50;1.00
3626;DHT22;1827;50.534;8.316;2023-12-14T11:11:20;6.60;1.00
3626;DHT22;1827;50.534;8.316;2023-12-14T11:13:47;6.50;1.00
3626;DHT22;1827;50.534;8.316;2023-12-14T11:16:15;6.60;1.00
3626;DHT22;1827;50.534;8.316;2023-12-14T11:18:41;6.70;1.00
3626;DHT22;1827;50.534;8.316;2023-12-14T11:21:06;6.90;1.00
3626;DHT22;1827;50.534;8.316;2023-12-14T11:23:36;6.90;1.00
3626;DHT22;1827;50.534;8.316;2023-12-14T11:26:03;6.80;99.90
3626;DHT22;1827;50.534;8.316;2023-12-14T11:28:33;6.90;99.90
3626;DHT22;1827;50.534;8.316;2023-12-14T11:30:59;6.70;99.90
3626;DHT22;1827;50.534;8.316;2023-12-14T11:33:25;6.60;1.00
3626;DHT22;1827;50.534;8.316;2023-12-14T11:35:53;6.70;1.00
3626;DHT22;1827;50.534;8.316;2023-12-14T11:38:20;6.80;1.00
3626;DHT22;1827;50.534;8.316;2023-12-14T11:40:46;6.80;1.00
3626;DHT22;1827;50.534;8.316;2023-12-14T11:43:13;6.90;1.00
3626;DHT22;1827;50.534;8.316;2023-12-14T11:45:40;7.00;1.00
3626;DHT22;1827;50.534;8.316;2023-12-14T11:48:12;7.10;99.90
3626;DHT22;1827;50.534;8.316;2023-12-14T11:50:41;7.20;99.90
3626;DHT22;1827;50.534;8.316;2023-12-14T11:53:08;7.10;79.70
3626;DHT22;1827;50.534;8.316;2023-12-14T11:55:34;7.00;1.00
3626;DHT22;1827;50.534;8.316;2023-12-14T11:58:03;7.10;1.00
3626;DHT22;1827;50.534;8.316;2023-12-14T12:00:30;7.20;1.00
3626;DHT22;1827;50.534;8.316;2023-12-14T12:03:15;7.10;1.00
3626;DHT22;1827;50.534;8.316;2023-12-14T12:05:42;7.20;1.00
3626;DHT22;1827;50.534;8.316;2023-12-14T12:08:09;7.20;1.00
3626;DHT22;1827;50.534;8.316;2023-12-14T12:10:36;7.20;1.00
3626;DHT22;1827;50.534;8.316;2023-12-14T12:13:02;7.20;99.90
3626;DHT22;1827;50.534;8.316;2023-12-14T12:15:28;7.20;99.90
3626;DHT22;1827;50.534;8.316;2023-12-14T12:17:54;7.10;99.90
3626;DHT22;1827;50.534;8.316;2023-12-14T12:20:19;7.20;99.90
3626;DHT22;1827;50.534;8.316;2023-12-14T12:22:45;7.10;52.60
3626;DHT22;1827;50.534;8.316;2023-12-14T12:25:13;7.00;1.00
3626;DHT22;1827;50.534;8.316;2023-12-14T12:27:45;7.10;1.00
3626;DHT22;1827;50.534;8.316;2023-12-14T12:30:11;7.10;1.00
3626;DHT22;1827;50.534;8.316;2023-12-14T12:32:37;7.00;1.00
3626;DHT22;1827;50.534;8.316;2023-12-14T12:35:06;7.00;1.00
3626;DHT22;1827;50.534;8.316;2023-12-14T12:37:31;6.90;1.00
3626;DHT22;1827;50.534;8.316;2023-12-14T12:39:57;6.80;1.00
3626;DHT22;1827;50.534;8.316;2023-12-14T12:42:22;6.90;1.00
3626;DHT22;1827;50.534;8.316;2023-12-14T12:44:48;6.90;1.00
3626;DHT22;1827;50.534;8.316;2023-12-14T12:47:14;6.90;1.00
3626;DHT22;1827;50.534;8.316;2023-12-14T12:49:39;7.00;1.00
3626;DHT22;1827;50.534;8.316;2023-12-14T12:52:05;7.00;99.90
3626;DHT22;1827;50.534;8.316;2023-12-14T12:54:31;6.90;99.90
3626;DHT22;1827;50.534;8.316;2023-12-14T12:56:58;6.90;99.90
3626;DHT22;1827;50.534;8.316;2023-12-14T12:59:23;6.90;99.90
3626;DHT22;1827;50.534;8.316;2023-12-14T13:01:49;6.80;99.90
3626;DHT22;1827;50.534;8.316;2023-12-14T13:04:18;6.90;99.90
3626;DHT22;1827;50.534;8.316;2023-12-14T13:06:45;7.00;99.90
3626;DHT22;1827;50.534;8.316;2023-12-14T13:09:11;7.00;99.90
3626;DHT22;1827;50.534;8.316;2023-12-14T13:11:37;7.00;99.90
3626;DHT22;1827;50.534;8.316;2023-12-14T13:14:02;7.00;99.90
3626;DHT22;1827;50.534;8.316;2023-12-14T13:16:51;6.90;99.90
3626;DHT22;1827;50.534;8.316;2023-12-14T13:19:16;6.90;99.90
3626;DHT22;1827;50.534;8.316;2023-12-14T13:21:42;6.80;99.90
3626;DHT22;1827;50.534;8.316;2023-12-14T13:24:08;6.80;99.90
3626;DHT22;1827;50.534;8.316;2023-12-14T13:26:33;6.90;99.90
3626;DHT22;1827;50.534;8.316;2023-12-14T13:28:59;6.90;99.90
3626;DHT22;1827;50.534;8.316;2023-12-14T13:31:25;6.90;99.90
3626;DHT22;1827;50.534;8.316;2023-12-14T13:33:50;6.90;99.90
3626;DHT22;1827;50.534;8.316;2023-12-14T13:36:19;6.90;96.20
3626;DHT22;1827;50.534;8.316;2023-12-14T13:38:45;6.80;94.10
3626;DHT22;1827;50.534;8.316;2023-12-14T13:41:11;6.80;91.40
3626;DHT22;1827;50.534;8.316;2023-12-14T13:43:37;6.80;99.70
3626;DHT22;1827;50.534;8.316;2023-12-14T13:46:02;6.80;99.90
3626;DHT22;1827;50.534;8.316;2023-12-14T13:48:28;6.80;99.90
3626;DHT22;1827;50.534;8.316;2023-12-14T13:50:54;6.80;99.90
3626;DHT22;1827;50.534;8.316;2023-12-14T13:53:21;6.70;99.90
3626;DHT22;1827;50.534;8.316;2023-12-14T13:55:46;6.70;99.90
3626;DHT22;1827;50.534;8.316;2023-12-14T13:58:12;6.70;99.90
3626;DHT22;1827;50.534;8.316;2023-12-14T14:00:38;6.80;99.90
3626;DHT22;1827;50.534;8.316;2023-12-14T14:03:05;6.90;99.90
3626;DHT22;1827;50.534;8.316;2023-12-14T14:05:31;6.90;99.90
3626;DHT22;1827;50.534;8.316;2023-12-14T14:07:57;6.80;99.90
3626;DHT22;1827;50.534;8.316;2023-12-14T14:10:22;6.80;90.30
3626;DHT22;1827;50.534;8.316;2023-12-14T14:12:48;6.70;73.90
3626;DHT22;1827;50.534;8.316;2023-12-14T14:15:14;6.60;55.90
3626;DHT22;1827;50.534;8.316;2023-12-14T14:17:40;6.50;66.90
3626;DHT22;1827;50.534;8.316;2023-12-14T14:20:06;6.50;84.00
3626;DHT22;1827;50.534;8.316;2023-12-14T14:22:32;6.40;99.00
3626;DHT22;1827;50.534;8.316;2023-12-14T14:24:58;6.40;99.90
3626;DHT22;1827;50.534;8.316;2023-12-14T14:27:23;6.50;99.90
3626;DHT22;1827;50.534;8.316;2023-12-14T14:29:49;6.50;99.90
3626;DHT22;1827;50.534;8.316;2023-12-14T14:32:15;6.50;99.90
3626;DHT22;1827;50.534;8.316;2023-12-14T14:34:42;6.40;99.90
3626;DHT22;1827;50.534;8.316;2023-12-14T14:37:08;6.40;99.90
3626;DHT22;1827;50.534;8.316;2023-12-14T14:39:33;6.40;99.90
3626;DHT22;1827;50.534;8.316;2023-12-14T14:41:59;6.30;99.90
3626;DHT22;1827;50.534;8.316;2023-12-14T14:44:25;6.30;99.90
3626;DHT22;1827;50.534;8.316;2023-12-14T14:46:51;6.30;99.90
3626;DHT22;1827;50.534;8.316;2023-12-14T14:49:17;6.30;99.90
3626;DHT22;1827;50.534;8.316;2023-12-14T14:51:43;6.30;99.90
3626;DHT22;1827;50.534;8.316;2023-12-14T14:54:11;6.20;99.90
3626;DHT22;1827;50.534;8.316;2023-12-14T14:56:37;6.20;99.90
3626;DHT22;1827;50.534;8.316;2023-12-14T14:59:02;6.20;99.90
3626;DHT22;1827;50.534;8.316;2023-12-14T15:01:28;6.10;99.90
3626;DHT22;1827;50.534;8.316;2023-12-14T15:03:53;6.10;99.90
3626;DHT22;1827;50.534;8.316;2023-12-14T15:06:19;6.10;99.90
3626;DHT22;1827;50.534;8.316;2023-12-14T15:08:44;6.00;99.90
3626;DHT22;1827;50.534;8.316;2023-12-14T15:11:10;5.90;99.90
3626;DHT22;1827;50.534;8.316;2023-12-14T15:13:36;5.80;99.90
3626;DHT22;1827;50.534;8.316;2023-12-14T15:16:02;5.60;99.90
3626;DHT22;1827;50.534;8.316;2023-12-14T15:18:28;5.60;99.90
3626;DHT22;1827;50.534;8.316;2023-12-14T15:20:53;5.70;99.90
3626;DHT22;1827;50.534;8.316;2023-12-14T15:23:19;5.70;99.90
3626;DHT22;1827;50.534;8.316;2023-12-14T15:25:45;5.70;99.90
3626;DHT22;1827;50.534;8.316;2023-12-14T15:28:10;5.70;99.90
3626;DHT22;1827;50.534;8.316;2023-12-14T15:30:36;5.80;99.90
3626;DHT22;1827;50.534;8.316;2023-12-14T15:33:01;5.80;99.90
3626;DHT22;1827;50.534;8.316;2023-12-14T15:35:27;5.80;99.90
3626;DHT22;1827;50.534;8.316;2023-12-14T15:37:53;5.80;99.90
3626;DHT22;1827;50.534;8.316;2023-12-14T15:40:18;5.50;99.90
3626;DHT22;1827;50.534;8.316;2023-12-14T15:42:44;5.60;1.00
3626;DHT22;1827;50.534;8.316;2023-12-14T15:45:10;5.60;1.00
3626;DHT22;1827;50.534;8.316;2023-12-14T15:47:35;5.60;1.00
3626;DHT22;1827;50.534;8.316;2023-12-14T15:50:01;5.60;1.00
3626;DHT22;1827;50.534;8.316;2023-12-14T15:52:26;5.50;1.00
3626;DHT22;1827;50.534;8.316;2023-12-14T15:54:53;5.60;1.00
3626;DHT22;1827;50.534;8.316;2023-12-14T15:57:19;5.60;1.00
3626;DHT22;1827;50.534;8.316;2023-12-14T15:59:44;5.50;1.00
3626;DHT22;1827;50.534;8.316;2023-12-14T16:02:10;5.50;1.00
3626;DHT22;1827;50.534;8.316;2023-12-14T16:04:36;5.50;1.00
3626;DHT22;1827;50.534;8.316;2023-12-14T16:07:02;5.40;1.00
3626;DHT22;1827;50.534;8.316;2023-12-14T16:09:29;5.40;1.00
3626;DHT22;1827;50.534;8.316;2023-12-14T16:11:54;5.40;1.00
3626;DHT22;1827;50.534;8.316;2023-12-14T16:14:20;5.40;1.00
3626;DHT22;1827;50.534;8.316;2023-12-14T16:16:46;5.40;1.00
3626;DHT22;1827;50.534;8.316;2023-12-14T16:19:11;5.30;1.00
3626;DHT22;1827;50.534;8.316;2023-12-14T16:21:37;5.40;1.00
3626;DHT22;1827;50.534;8.316;2023-12-14T16:24:03;5.30;1.00